x

Half Moon Bay - 24nm Ssw Of San Francisco, Ca (46012) Wave Buoy

5:50pm - Tue 28th Jul 2015 All times are PDT. -7 hours from GMT.

  • Sig Wave height 5.9ft
  • Swell Direction
  • Peak Period 16s
  • Average Period 7s
  • Wind
    2mph
  • Sea Temp 65°f
  • Air Temp 65°f
  • Sea Pressure 1011.9mb
  • Half Moon Bay - 24nm Ssw Of San Francisco, Ca
  • Half Moon Bay - 24nm Ssw Of San Francisco, Ca

More Historic Weather Station data

Upgrade to MSW Pro to gain access to the past 30 days of data for over 8000 Wavebouys and Weather Stations around the globe.

Join Pro

Comparision Forecast

View Surf forecast
   
Tue 07/28 5:50pm 6ft 16s 7s 2
mph
1011.9mb 65f 65f
4:50pm 6ft 16s 7s 2 4 mph 1012mb 65f 64f
3:50pm 7ft 9s 7s 2 4 mph 1012.3mb 65f 63f
2:50pm 7ft 17s 8s 4 7 mph 1012.8mb 63f 63f
1:50pm 7ft 9s 7s 4
mph
1013.3mb 63f 62f
12:50pm 7ft 9s 8s 4 7 mph 1013.4mb 63f 62f
11:50am 7ft 17s 8s 2 4 mph 1013.3mb 61f 61f
10:50am 6ft 17s 7s 2 4 mph 1013.2mb 61f 60f
9:50am 6ft 17s 7s 4
mph
1013.2mb 61f 60f
8:50am 6.5ft 9s 7s 2 4 mph 1013.2mb 60f 60f
7:50am 7ft 9s 7s 7
mph
1012.7mb 60f 60f
6:50am 7ft 9s 7s 7 9 mph 1012.4mb 60f 59f
5:50am 7.5ft 9s 7s 7 9 mph 1012.4mb 60f 59f
4:50am 7ft 9s 7s 7 9 mph 1012.3mb 60f 59f
3:50am 8ft 9s 7s 11 13 mph 1012.4mb 60f 59f
2:50am 8ft 9s 7s 11 16 mph 1012.5mb 60f 59f
1:50am 8.5ft 9s 7s 11 13 mph 1012.9mb 60f 59f
12:50am 8ft 9s 7s 11 13 mph 1013.3mb 60f 59f
Mon 07/27 11:50pm 7ft 9s 7s 13 18 mph 1013.6mb 60f 60f
10:50pm 7ft 8s 7s 13 18 mph 1013.8mb 60f 60f
9:50pm 6.5ft 8s 6s 13 16 mph 1014mb 60f 60f
8:50pm 7ft 10s 6s 16 20 mph 1013.8mb 60f 60f
7:50pm 7ft 10s 6s 22 27 mph 1013.4mb 61f 61f
6:50pm 6ft 7s 6s 20 25 mph 1013.8mb 61f 61f
5:50pm 7ft 10s 6s 22 27 mph 1014mb 61f 61f
4:50pm 6.5ft 10s 6s 22 25 mph 1014.4mb 61f 61f
3:50pm 6ft 8s 6s 20 25 mph 1015.1mb 61f 60f
2:50pm 6.5ft 7s 6s 20 22 mph 1015.6mb 61f 60f
1:50pm 6.5ft 7s 6s 18 22 mph 1015.8mb 61f 60f
12:50pm 7.5ft 8s 6s 16 20 mph 1016.2mb 60f 60f
11:50am 8ft 8s 7s 16 20 mph 1016.3mb 60f 60f
10:50am 7ft 8s 7s 18 20 mph 1016mb 60f 60f
9:50am 8ft 8s 7s 18 22 mph 1015.8mb 60f 60f
8:50am 7.5ft 9s 6s 18 20 mph 1015.5mb 60f 60f
7:50am 8.5ft 8s 6s 20 25 mph 1014.9mb 60f 60f
6:50am 8.5ft 8s 6s 22 27 mph 1014.4mb 60f 60f
5:50am 9.5ft 8s 6s 25 31 mph 1013.7mb 60f 60f
4:50am 10ft 8s 7s 29 36 mph 1013.2mb 60f 60f
3:50am 11ft 8s 7s 27 31 mph 1013.4mb 60f 60f
2:50am 9.5ft 8s 7s 27 34 mph 1013.2mb 61f 60f
1:50am 9ft 8s 6s 20 25 mph 1014.5mb 61f 60f
12:50am 10ft 8s 7s 25 31 mph 1014.2mb 61f 61f
Sun 07/26 11:50pm 11.5ft 8s 7s 25 34 mph 1014.6mb 61f 61f
10:50pm 10ft 8s 6s 27 34 mph 1014.5mb 61f 62f
9:50pm 9ft 8s 6s 25 29 mph 1014.3mb 61f 62f
8:50pm 9ft 8s 6s 22 29 mph 1014.2mb 61f 62f
7:50pm 7.5ft 8s 6s 20 27 mph 1014.6mb 62f 62f
6:50pm 7.5ft 8s 6s 20 27 mph 1014.7mb 62f 62f
5:50pm 7ft 11s 6s 20 25 mph 1014.9mb 62f 62f
4:50pm 6ft 12s 6s 18 22 mph 1015.6mb 62f 62f
3:50pm 7ft 8s 6s 18 22 mph 1015.9mb 62f 61f
2:50pm 6.5ft 8s 6s 20 22 mph 1016.4mb 62f 61f
1:50pm 6ft 8s 6s 18 20 mph 1016.6mb 62f 61f
12:50pm 7ft 8s 6s 16 20 mph 1016.9mb 62f 60f
11:50am 7ft 7s 6s 16 18 mph 1016.6mb 62f 60f
10:50am 6.5ft 8s 6s 16 18 mph 1016.3mb 62f 60f
9:50am 6ft 8s 7s 13 18 mph 1016.1mb 62f 60f
8:50am 6.5ft 8s 6s 13 16 mph 1016mb 62f 60f
7:50am 6.5ft 7s 6s 11 16 mph 1015.6mb 62f 60f
6:50am 5.5ft 8s 6s 13 16 mph 1015.4mb 61f 60f
5:50am 6ft 7s 6s 13 16 mph 1015.1mb 61f 60f
4:50am 6ft 6s 6s 13 18 mph 1015mb 61f 60f
3:50am 5.5ft 6s 6s 16 20 mph 1015.1mb 61f 60f
2:50am 5ft 6s 6s 16 20 mph 1015.3mb 61f 61f
1:50am 5ft 6s 6s 16 20 mph 1015.9mb 61f 61f
12:50am 5ft 6s 6s 18 22 mph 1016.1mb 61f 61f
Sat 07/25 11:50pm 5ft 15s 6s 18 22 mph 1016.6mb 61f 62f
10:50pm 4.5ft 6s 5s 11
mph
1017mb 61f 61f
9:50pm 4.5ft 5s 5s 11 16 mph 1017.3mb 61f 61f
8:50pm 4.5ft 13s 5s 18 20 mph 1017.2mb 62f 60f
7:50pm 4.5ft 12s 5s 18 22 mph 1017.4mb 62f 61f
6:50pm 4.5ft 12s 5s 18 22 mph 1017.4mb 62f 61f
5:50pm 4.5ft 12s 5s 18 25 mph 1017.8mb 62f 61f
4:50pm 4.5ft 12s 5s 18 20 mph 1018.3mb 62f 61f
3:50pm 5ft 5s 6s 16 18 mph 1019mb 62f 62f
2:50pm 5ft 5s 6s 16 20 mph 1019.8mb 61f 61f
1:50pm 4.5ft 13s 6s 11 13 mph 1020.4mb 61f 61f
12:50pm 4.5ft 12s 6s 13 16 mph 1020.6mb 61f 60f
11:50am 4.5ft 13s 6s 13 16 mph 1020.7mb 61f 60f
10:50am 4.5ft 12s 6s 13 18 mph 1020.7mb 61f 60f
9:50am 4ft 13s 6s 16 18 mph 1020.4mb 61f 61f
8:50am 4ft 13s 6s 13 16 mph 1020.1mb 61f 62f
7:50am 4ft 13s 6s 11 16 mph 1020mb 61f 62f
6:50am 3.5ft 13s 6s 13 16 mph 1019.7mb 61f 61f
5:50am 4ft 13s 7s 11 13 mph 1019.4mb 61f 61f
4:50am 3.5ft 13s 6s 11 13 mph 1019.1mb 61f 61f
3:50am 3.5ft 13s 6s 11 13 mph 1019.1mb 61f 61f
2:50am 3.5ft 13s 5s 13 16 mph 1019.4mb 61f 61f
1:50am 3.5ft 13s 5s 13 16 mph 1019.7mb 61f 61f